createdAt,value
2022-09-28T00:16:03.426Z,89.65
2022-09-28T00:22:57.021Z,89.68
2022-09-28T00:26:38.851Z,89.62
2022-09-28T00:34:26.322Z,89.41
2022-09-28T00:37:58.687Z,89.50
2022-09-28T01:04:02.226Z,88.63
2022-09-28T01:35:49.851Z,88.99
2022-09-28T01:38:58.820Z,89.08
2022-09-28T01:42:55.341Z,89.08
2022-09-28T01:46:01.873Z,89.10
2022-09-28T01:49:12.887Z,89.10
2022-09-28T01:55:49.047Z,89.13
2022-09-28T01:58:57.071Z,89.31
2022-09-28T02:02:02.659Z,89.48
2022-09-28T02:05:38.510Z,89.57
2022-09-28T02:08:48.707Z,89.66
2022-09-28T02:11:54.701Z,89.72
2022-09-28T02:15:00.587Z,89.74
2022-09-28T02:18:26.627Z,89.68
2022-09-28T02:21:33.586Z,89.56
2022-09-28T02:24:48.522Z,89.55
2022-09-28T02:27:54.132Z,89.50
2022-09-28T02:31:00.802Z,89.58
2022-09-28T02:37:31.852Z,89.60
2022-09-28T02:40:39.919Z,89.56
2022-09-28T02:43:48.987Z,89.45
2022-09-28T02:47:02.761Z,89.29
2022-09-28T02:50:12.862Z,89.11
2022-09-28T02:53:22.027Z,89.05
2022-09-28T02:57:03.023Z,88.99
2022-09-28T03:00:38.778Z,89.01
2022-09-28T03:03:44.320Z,89.13
2022-09-28T03:07:35.635Z,89.10
2022-09-28T03:11:10.860Z,88.92
2022-09-28T03:14:23.281Z,88.79
2022-09-28T03:17:29.594Z,88.76
2022-09-28T03:20:58.968Z,88.99
2022-09-28T03:24:44.881Z,89.14
2022-09-28T03:28:00.522Z,89.20
2022-09-28T03:31:07.876Z,89.26
2022-09-28T03:34:40.610Z,89.13
2022-09-28T03:37:48.501Z,89.06
2022-09-28T03:41:03.248Z,88.90
2022-09-28T03:47:45.011Z,89.17
2022-09-28T03:51:17.762Z,89.50
2022-09-28T03:54:24.781Z,89.60
2022-09-28T03:57:32.804Z,89.57
2022-09-28T04:01:07.540Z,89.47
2022-09-28T04:04:14.907Z,89.25
2022-09-28T04:07:59.542Z,89.12
2022-09-28T04:11:05.702Z,88.94
2022-09-28T13:13:31.863Z,81.03
2022-09-28T13:16:49.030Z,80.70
2022-09-28T13:19:30.223Z,80.37
2022-09-28T13:22:25.542Z,80.92
2022-09-28T13:25:03.226Z,80.79
2022-09-28T13:27:45.868Z,79.58
2022-09-28T13:30:18.442Z,79.28
2022-09-28T13:32:50.201Z,79.12
2022-09-28T13:35:22.542Z,79.07
2022-09-28T13:38:17.961Z,79.28
2022-09-28T13:41:06.053Z,79.89
2022-09-28T13:44:11.035Z,79.47
2022-09-28T13:47:01.011Z,78.80
2022-09-28T13:50:13.022Z,78.85
2022-09-28T13:53:20.223Z,78.53
2022-09-28T13:56:06.301Z,78.78
2022-09-28T13:58:49.121Z,79.14
2022-09-28T14:01:33.605Z,79.48
2022-09-28T14:04:22.341Z,79.96
2022-09-28T14:07:16.837Z,80.05
2022-09-28T14:10:15.621Z,79.74
2022-09-28T14:12:54.581Z,79.96
2022-09-28T14:15:40.460Z,79.64
2022-09-28T14:18:25.410Z,79.72
2022-09-28T14:21:29.424Z,79.62
2022-09-28T14:24:53.152Z,79.82
2022-09-28T14:28:03.450Z,80.33
2022-09-28T14:30:38.937Z,80.09
2022-09-28T14:33:30.842Z,80.27
2022-09-28T14:36:05.463Z,80.36
2022-09-28T14:39:10.011Z,80.44
2022-09-28T14:41:43.721Z,80.56
2022-09-28T14:44:16.787Z,80.98
2022-09-28T14:46:49.460Z,81.22
2022-09-28T14:49:18.463Z,81.44
2022-09-28T14:51:56.540Z,81.72
2022-09-28T14:54:29.140Z,81.75
2022-09-28T14:57:25.920Z,81.60
2022-09-28T15:00:00.120Z,81.16
2022-09-28T15:02:33.761Z,80.97
2022-09-28T15:05:27.047Z,81.15
2022-09-28T15:07:56.775Z,81.26
2022-09-28T15:10:40.107Z,81.22
2022-09-28T15:13:29.155Z,81.21
2022-09-28T15:16:10.294Z,81.40
2022-09-28T15:19:06.896Z,81.18
2022-09-28T15:21:42.047Z,81.09
2022-09-28T15:24:34.694Z,81.19
2022-09-28T15:27:16.096Z,81.50
2022-09-28T15:30:00.023Z,81.69
2022-09-28T15:32:32.084Z,81.75
2022-09-28T15:35:20.980Z,81.81
2022-09-28T15:37:52.463Z,81.87
2022-09-28T15:40:35.578Z,82.06
2022-09-28T15:43:29.280Z,82.64
2022-09-28T15:46:13.676Z,83.07
2022-09-28T15:49:00.242Z,83.37
2022-09-28T15:51:32.922Z,83.62
2022-09-28T15:54:19.863Z,83.72
2022-09-28T15:57:00.202Z,83.82
2022-09-28T15:59:41.540Z,84.06
2022-09-28T16:02:16.995Z,84.37
2022-09-28T16:04:53.501Z,84.44
2022-09-28T16:07:39.181Z,84.46
2022-09-28T16:10:14.221Z,84.31
2022-09-28T16:12:49.003Z,84.30
2022-09-28T16:15:31.845Z,84.44
2022-09-28T16:18:24.003Z,84.51
2022-09-28T16:20:56.969Z,84.58
2022-09-28T16:23:37.141Z,84.67
2022-09-28T16:26:33.191Z,84.76
2022-09-28T16:29:32.982Z,84.90
2022-09-28T16:32:34.703Z,85.08
2022-09-28T16:35:26.346Z,85.05
2022-09-28T16:38:10.123Z,84.79
2022-09-28T16:40:43.666Z,84.55
2022-09-28T16:43:36.920Z,84.44
2022-09-28T16:46:16.895Z,84.37
2022-09-28T16:48:51.301Z,84.30
2022-09-28T16:51:23.681Z,84.26
2022-09-28T16:54:12.382Z,84.17
2022-09-28T16:56:41.363Z,84.22
2022-09-28T16:59:13.757Z,84.29
2022-09-28T17:01:45.933Z,84.25
2022-09-28T17:04:15.001Z,84.19
2022-09-28T17:06:45.689Z,84.20
2022-09-28T17:09:15.727Z,84.29
2022-09-28T17:11:45.162Z,84.51
2022-09-28T17:14:14.761Z,84.59
2022-09-28T17:17:06.971Z,84.67
2022-09-28T17:19:34.351Z,84.66
2022-09-28T17:22:04.093Z,84.69
2022-09-28T17:24:34.099Z,84.81
2022-09-28T17:27:05.903Z,84.90
2022-09-28T17:29:34.645Z,85.16
2022-09-28T17:32:05.684Z,85.23
2022-09-28T17:34:34.481Z,85.37
2022-09-28T17:37:03.981Z,85.61
2022-09-28T17:39:32.767Z,85.78
2022-09-28T17:42:01.761Z,85.92
2022-09-28T17:44:32.112Z,85.91
2022-09-28T17:47:02.468Z,85.48
2022-09-28T17:49:31.600Z,84.90
2022-09-28T17:52:02.097Z,84.62
2022-09-28T17:54:31.740Z,84.39
2022-09-28T17:57:01.043Z,84.14
2022-09-28T17:59:30.181Z,84.05
2022-09-28T18:02:02.181Z,84.05
2022-09-28T18:04:51.333Z,83.49
2022-09-28T18:07:21.600Z,82.72
2022-09-28T18:09:57.124Z,82.43
2022-09-28T18:12:27.400Z,82.32
2022-09-28T18:14:57.071Z,82.33
2022-09-28T18:17:25.901Z,82.38
2022-09-28T18:19:55.975Z,82.51
2022-09-28T18:22:25.080Z,82.69
2022-09-28T18:24:54.130Z,82.86
2022-09-28T18:27:23.384Z,83.09
2022-09-28T18:29:52.480Z,83.37
2022-09-28T18:32:24.170Z,83.64
2022-09-28T18:34:53.520Z,83.56
2022-09-28T18:37:22.521Z,83.35
2022-09-28T18:39:51.331Z,82.31
2022-09-28T18:42:21.444Z,81.79
2022-09-28T18:44:50.545Z,81.71
2022-09-28T18:47:19.742Z,81.72
2022-09-28T18:49:51.170Z,81.55
2022-09-28T18:52:21.475Z,81.14
2022-09-28T18:54:51.321Z,81.12
2022-09-28T18:57:20.523Z,81.10
2022-09-28T18:59:49.501Z,80.93
2022-09-28T19:02:18.431Z,80.72
2022-09-28T19:04:47.492Z,80.56
2022-09-28T19:07:17.501Z,80.55
2022-09-28T19:09:46.401Z,80.77
2022-09-28T19:12:15.521Z,80.98
2022-09-28T19:14:44.500Z,80.69
2022-09-28T19:17:13.481Z,80.28
2022-09-28T19:19:45.560Z,80.35
2022-09-28T19:22:14.541Z,80.43
2022-09-28T19:24:43.449Z,80.50
2022-09-28T19:27:12.442Z,80.49
2022-09-28T19:29:41.401Z,80.58
2022-09-28T19:32:12.482Z,80.82
2022-09-28T19:34:41.561Z,81.10
2022-09-28T19:37:10.461Z,81.41
2022-09-28T19:39:39.341Z,81.60
2022-09-28T19:42:08.743Z,81.68
2022-09-28T19:44:37.542Z,81.81
2022-09-28T19:47:10.249Z,82.00
2022-09-28T19:49:41.921Z,82.19
2022-09-28T19:52:17.944Z,82.46
2022-09-28T19:54:57.169Z,82.60
2022-09-28T19:57:30.963Z,82.73
2022-09-28T20:00:03.098Z,82.89
2022-09-28T20:02:35.207Z,83.11
2022-09-28T20:05:04.501Z,83.36
2022-09-28T20:07:35.131Z,83.43
2022-09-28T20:10:04.350Z,83.62
2022-09-28T20:12:33.341Z,83.74
2022-09-28T20:15:02.136Z,83.85
2022-09-28T20:17:31.022Z,83.97
2022-09-28T20:19:59.794Z,84.20
2022-09-28T20:22:29.825Z,84.38
2022-09-28T20:24:58.822Z,84.71
2022-09-28T20:27:33.652Z,84.81
2022-09-28T20:30:06.521Z,84.90
2022-09-28T20:32:35.641Z,84.99
2022-09-28T20:35:06.021Z,85.03
2022-09-28T20:37:35.102Z,85.07
2022-09-28T20:40:04.802Z,85.19
2022-09-28T20:42:36.905Z,85.16
2022-09-28T20:45:06.668Z,85.17
2022-09-28T20:47:35.621Z,85.26
2022-09-28T20:50:06.980Z,85.20
2022-09-28T20:52:36.081Z,85.22
2022-09-28T20:55:05.423Z,85.31
2022-09-28T20:57:34.361Z,85.31
2022-09-28T21:00:04.561Z,85.35
2022-09-28T21:02:34.183Z,85.49
2022-09-28T21:05:03.181Z,85.65
2022-09-28T21:07:32.181Z,85.80
2022-09-28T21:10:00.721Z,85.88
2022-09-28T21:12:30.206Z,85.91
2022-09-28T21:15:02.253Z,86.00
2022-09-28T21:17:34.393Z,86.00
2022-09-28T21:20:03.702Z,86.05
2022-09-28T21:22:32.481Z,86.20
2022-09-28T21:25:01.323Z,86.26
2022-09-28T21:27:30.382Z,86.30
2022-09-28T21:29:59.281Z,86.17
2022-09-28T21:32:29.802Z,86.04
2022-09-28T21:34:58.783Z,86.00
2022-09-28T21:37:27.688Z,86.00
2022-09-28T21:39:56.981Z,86.08
2022-09-28T21:42:25.781Z,86.10
2022-09-28T21:44:58.791Z,86.18
2022-09-28T21:47:28.683Z,86.27
2022-09-28T21:49:57.482Z,86.22
2022-09-28T21:52:26.783Z,86.20
2022-09-28T21:54:55.749Z,86.30
2022-09-28T21:57:24.360Z,86.36
2022-09-28T22:00:05.423Z,86.42
2022-09-28T22:02:34.516Z,86.36
2022-09-28T22:05:03.841Z,86.29
2022-09-28T22:07:33.255Z,86.22
2022-09-28T22:10:02.582Z,86.30
2022-09-28T22:31:20.125Z,86.68
2022-09-28T22:33:55.309Z,86.64
2022-09-28T22:36:26.706Z,86.60
2022-09-28T22:39:09.156Z,86.68
2022-09-28T22:41:49.587Z,86.81
2022-09-28T22:44:19.778Z,86.90
2022-09-28T22:46:57.963Z,87.03
2022-09-28T22:50:13.066Z,87.02
2022-09-28T22:53:33.319Z,86.92
2022-09-28T23:07:25.184Z,87.13
2022-09-28T23:11:06.248Z,87.07
2022-09-28T23:14:45.478Z,87.19
2022-09-28T23:17:18.418Z,87.11
2022-09-28T23:19:47.763Z,87.25
2022-09-28T23:22:16.565Z,87.32
2022-09-28T23:24:45.507Z,87.38
2022-09-28T23:27:16.512Z,87.40
2022-09-28T23:30:13.150Z,87.43
2022-09-28T23:33:42.632Z,87.56
2022-09-28T23:40:30.119Z,87.66
2022-09-28T23:43:54.159Z,87.55
2022-09-28T23:46:51.227Z,87.83
2022-09-28T23:53:03.871Z,87.97
2022-09-28T23:59:35.391Z,87.82
